createdAt,value
2019-05-18T00:02:20.723Z,14.60
2019-05-18T00:04:48.596Z,14.80
2019-05-18T00:07:16.560Z,14.80
2019-05-18T00:09:44.432Z,15.00
2019-05-18T00:12:12.461Z,14.70
2019-05-18T00:14:40.419Z,14.20
2019-05-18T00:17:23.195Z,14.20
2019-05-18T00:19:38.204Z,14.30
2019-05-18T00:22:06.078Z,14.10
2019-05-18T00:24:33.999Z,14.10
2019-05-18T00:27:02.027Z,14.20
2019-05-18T00:29:30.005Z,14.00
2019-05-18T00:31:57.963Z,14.10
2019-05-18T00:34:25.916Z,14.10
2019-05-18T00:36:53.797Z,14.10
2019-05-18T00:39:21.731Z,14.00
2019-05-18T00:41:49.675Z,13.70
2019-05-18T00:44:17.672Z,13.40
2019-05-18T00:46:45.622Z,13.50
2019-05-18T00:49:14.153Z,13.70
2019-05-18T00:51:42.475Z,13.90
2019-05-18T00:54:10.438Z,13.60
2019-05-18T00:56:38.335Z,13.60
2019-05-18T00:59:06.367Z,13.70
2019-05-18T01:01:34.418Z,13.60
2019-05-18T01:04:02.485Z,13.60
2019-05-18T01:06:30.357Z,13.50
2019-05-18T01:09:11.998Z,13.70
2019-05-18T01:11:39.861Z,13.80
2019-05-18T01:14:07.849Z,13.80
2019-05-18T01:16:41.442Z,14.00
2019-05-18T01:19:09.360Z,13.80
2019-05-18T01:21:37.273Z,13.60
2019-05-18T01:24:06.198Z,13.40
2019-05-18T01:26:34.120Z,13.20
2019-05-18T01:29:04.420Z,13.10
2019-05-18T01:31:32.527Z,13.20
2019-05-18T01:34:00.495Z,13.30
2019-05-18T01:36:28.384Z,13.30
2019-05-18T01:38:56.264Z,13.40
2019-05-18T01:41:24.116Z,13.50
2019-05-18T01:43:51.997Z,13.60
2019-05-18T01:46:19.882Z,13.50
2019-05-18T01:48:47.760Z,13.60
2019-05-18T01:51:15.668Z,13.80
2019-05-18T01:53:43.584Z,13.80
2019-05-18T01:56:11.498Z,13.80
2019-05-18T01:58:39.377Z,13.80
2019-05-18T02:01:07.224Z,13.90
2019-05-18T02:03:35.119Z,13.70
2019-05-18T02:06:03.001Z,13.50
2019-05-18T02:08:30.900Z,13.60
2019-05-18T02:10:58.818Z,13.60
2019-05-18T02:13:29.220Z,13.70
2019-05-18T02:16:00.324Z,13.40
2019-05-18T02:18:29.390Z,13.40
2019-05-18T02:20:57.940Z,13.30
2019-05-18T02:23:27.002Z,13.10
2019-05-18T02:25:54.932Z,12.80
2019-05-18T02:28:22.795Z,13.10
2019-05-18T02:30:50.669Z,13.40
2019-05-18T02:33:18.548Z,13.10
2019-05-18T02:35:46.394Z,13.30
2019-05-18T02:38:15.279Z,13.10
2019-05-18T02:40:43.978Z,13.00
2019-05-18T02:43:11.834Z,12.90
2019-05-18T02:45:40.024Z,13.10
2019-05-18T02:48:07.812Z,13.00
2019-05-18T02:50:35.710Z,12.90
2019-05-18T02:53:03.927Z,12.90
2019-05-18T02:55:31.969Z,12.90
2019-05-18T02:57:59.783Z,12.90
2019-05-18T03:00:27.635Z,12.90
2019-05-18T03:02:55.513Z,12.90
2019-05-18T03:05:23.889Z,12.90
2019-05-18T03:07:51.743Z,12.50
2019-05-18T03:10:19.799Z,12.80
2019-05-18T03:12:47.894Z,12.70
2019-05-18T03:15:16.163Z,12.50
2019-05-18T03:17:44.017Z,12.40
2019-05-18T03:20:12.084Z,12.00
2019-05-18T03:22:39.960Z,12.00
2019-05-18T03:25:08.161Z,11.90
2019-05-18T03:27:36.178Z,12.30
2019-05-18T03:30:04.200Z,12.80
2019-05-18T03:32:32.094Z,13.00
2019-05-18T03:34:59.946Z,13.00
2019-05-18T03:37:27.838Z,12.90
2019-05-18T03:39:55.838Z,13.00
2019-05-18T03:42:23.703Z,12.70
2019-05-18T03:44:51.649Z,12.80
2019-05-18T03:47:19.586Z,12.80
2019-05-18T03:49:47.485Z,12.70
2019-05-18T03:52:15.390Z,12.80
2019-05-18T03:54:43.278Z,12.80
2019-05-18T03:57:11.123Z,13.00
2019-05-18T03:59:39.008Z,13.20
2019-05-18T04:02:06.867Z,13.20
2019-05-18T04:04:34.731Z,13.30
2019-05-18T04:07:02.552Z,13.40
2019-05-18T04:09:30.456Z,13.10
2019-05-18T04:11:58.345Z,13.20
2019-05-18T04:14:26.218Z,13.00
2019-05-18T04:16:56.502Z,13.50
2019-05-18T04:19:42.649Z,13.50
2019-05-18T04:22:14.442Z,13.70
2019-05-18T04:24:42.326Z,12.90
2019-05-18T04:27:10.271Z,13.30
2019-05-18T04:29:39.623Z,13.50
2019-05-18T04:32:07.763Z,13.30
2019-05-18T04:34:35.636Z,13.30
2019-05-18T04:37:03.477Z,13.60
2019-05-18T04:39:31.442Z,13.60
2019-05-18T04:41:59.392Z,13.80
2019-05-18T04:44:27.249Z,13.90
2019-05-18T04:46:55.140Z,14.00
2019-05-18T04:49:22.992Z,13.90
2019-05-18T04:51:50.857Z,13.80
2019-05-18T04:54:18.778Z,13.70
2019-05-18T04:56:46.776Z,14.20
2019-05-18T04:59:14.665Z,14.20
2019-05-18T05:01:42.710Z,14.50
2019-05-18T05:04:10.625Z,13.80
2019-05-18T05:06:38.573Z,14.00
2019-05-18T05:09:07.352Z,14.40
2019-05-18T05:11:35.354Z,14.60
2019-05-18T05:14:03.927Z,14.10
2019-05-18T05:16:31.891Z,14.30
2019-05-18T05:18:59.853Z,13.90
2019-05-18T05:21:27.784Z,13.90
2019-05-18T05:23:55.628Z,14.40
2019-05-18T05:26:23.677Z,14.20
2019-05-18T05:28:51.565Z,15.00
2019-05-18T05:31:19.559Z,14.70
2019-05-18T05:33:47.458Z,14.70
2019-05-18T05:36:15.485Z,14.90
2019-05-18T05:38:43.400Z,14.50
2019-05-18T05:41:16.527Z,14.80
2019-05-18T05:43:41.166Z,16.00
2019-05-18T05:46:09.098Z,16.40
2019-05-18T05:48:37.000Z,16.30
2019-05-18T05:51:04.874Z,16.30
2019-05-18T05:53:33.074Z,16.90
2019-05-18T05:56:00.918Z,16.60
2019-05-18T05:58:28.897Z,16.30
2019-05-18T06:00:56.740Z,16.90
2019-05-18T06:03:24.608Z,17.20
2019-05-18T06:05:52.558Z,16.70
2019-05-18T06:08:20.936Z,15.90
2019-05-18T06:10:48.911Z,16.50
2019-05-18T06:13:16.930Z,16.70
2019-05-18T06:15:44.778Z,16.90
2019-05-18T06:18:12.655Z,17.40
2019-05-18T06:20:51.025Z,15.80
2019-05-18T06:23:10.522Z,15.40
2019-05-18T06:25:41.683Z,16.10
2019-05-18T06:28:09.666Z,16.90
2019-05-18T06:30:37.593Z,17.00
2019-05-18T06:33:05.465Z,17.00
2019-05-18T06:35:33.334Z,16.70
2019-05-18T06:38:01.233Z,17.60
2019-05-18T06:40:29.218Z,17.80
2019-05-18T06:42:57.180Z,18.40
2019-05-18T06:45:25.089Z,18.20
2019-05-18T06:47:52.974Z,17.90
2019-05-18T06:50:29.041Z,17.60
2019-05-18T06:52:57.957Z,16.40
2019-05-18T06:55:26.546Z,17.40
2019-05-18T06:57:56.748Z,17.30
2019-05-18T07:00:24.806Z,19.00
2019-05-18T07:02:52.684Z,19.20
2019-05-18T07:05:21.860Z,18.10
2019-05-18T07:07:50.562Z,19.30
2019-05-18T07:10:18.429Z,20.20
2019-05-18T07:12:47.361Z,21.00
2019-05-18T07:15:16.185Z,21.90
2019-05-18T07:17:44.596Z,20.60
2019-05-18T07:20:15.907Z,19.90
2019-05-18T07:22:43.972Z,19.00
2019-05-18T07:25:12.571Z,20.00
2019-05-18T07:27:40.569Z,20.00
2019-05-18T07:30:09.704Z,22.20
2019-05-18T07:32:37.753Z,21.30
2019-05-18T07:35:06.487Z,21.30
2019-05-18T07:37:34.604Z,18.70
2019-05-18T07:40:02.689Z,19.10
2019-05-18T07:42:30.685Z,19.60
2019-05-18T07:44:58.631Z,21.40
2019-05-18T07:47:26.670Z,21.00
2019-05-18T07:49:55.265Z,22.30
2019-05-18T07:52:23.363Z,22.70
2019-05-18T07:54:52.361Z,19.80
2019-05-18T07:57:20.468Z,20.30
2019-05-18T07:59:49.831Z,21.30
2019-05-18T08:02:17.974Z,22.30
2019-05-18T08:04:45.991Z,23.50
2019-05-18T08:07:14.056Z,22.80
2019-05-18T08:09:42.038Z,22.90
2019-05-18T08:12:10.030Z,20.80
2019-05-18T08:14:38.069Z,20.70
2019-05-18T08:17:06.179Z,23.30
2019-05-18T08:19:34.155Z,23.00
2019-05-18T08:22:02.342Z,23.60
2019-05-18T08:24:30.328Z,21.80
2019-05-18T08:27:01.826Z,21.50
2019-05-18T08:29:28.324Z,22.00
2019-05-18T08:31:56.396Z,23.00
2019-05-18T08:34:24.436Z,23.80
2019-05-18T08:36:53.481Z,23.80
2019-05-18T08:39:21.655Z,23.80
2019-05-18T08:41:49.725Z,23.00
2019-05-18T08:44:17.765Z,23.00
2019-05-18T08:46:45.713Z,21.90
2019-05-18T08:49:13.798Z,23.00
2019-05-18T08:51:42.937Z,23.70
2019-05-18T08:54:11.975Z,23.70
2019-05-18T08:56:40.024Z,23.50
2019-05-18T08:59:08.275Z,21.80
2019-05-18T09:01:36.293Z,22.60
2019-05-18T09:04:04.463Z,23.10
2019-05-18T09:06:32.566Z,23.20
2019-05-18T09:09:00.757Z,22.30
2019-05-18T09:11:28.996Z,21.50
2019-05-18T09:13:57.076Z,22.90
2019-05-18T09:16:25.575Z,23.40
2019-05-18T09:18:53.730Z,23.50
2019-05-18T09:21:21.845Z,23.70
2019-05-18T09:23:50.032Z,23.40
2019-05-18T09:26:18.239Z,23.70
2019-05-18T09:28:48.224Z,22.80
2019-05-18T09:31:16.299Z,22.60
2019-05-18T09:33:44.309Z,23.20
2019-05-18T09:36:12.413Z,23.60
2019-05-18T09:38:40.400Z,23.70
2019-05-18T09:41:08.492Z,24.20
2019-05-18T09:43:36.657Z,23.70
2019-05-18T09:46:04.749Z,23.50
2019-05-18T09:48:32.946Z,23.50
2019-05-18T09:51:01.069Z,23.60
2019-05-18T09:53:30.151Z,23.80
2019-05-18T09:55:58.233Z,23.90
2019-05-18T09:58:26.252Z,23.30
2019-05-18T10:00:54.402Z,23.20
2019-05-18T10:03:22.348Z,25.10
2019-05-18T10:05:50.310Z,25.80
2019-05-18T10:08:18.334Z,26.10
2019-05-18T10:10:51.035Z,25.20
2019-05-18T10:13:18.994Z,26.20
2019-05-18T10:15:46.959Z,24.80
2019-05-18T10:18:14.931Z,23.30
2019-05-18T10:20:42.951Z,22.80
2019-05-18T10:23:13.689Z,23.10
2019-05-18T10:25:40.716Z,23.40
2019-05-18T10:28:08.686Z,23.00
2019-05-18T10:30:36.698Z,23.30
2019-05-18T10:33:04.868Z,23.80
2019-05-18T10:35:32.819Z,23.30
2019-05-18T10:38:00.824Z,23.10
2019-05-18T10:40:28.748Z,23.60
2019-05-18T10:42:56.870Z,23.10
2019-05-18T10:45:24.818Z,23.80
2019-05-18T10:47:52.729Z,25.40
2019-05-18T10:50:21.716Z,24.90
2019-05-18T10:52:49.692Z,24.20
2019-05-18T10:55:17.861Z,25.30
2019-05-18T10:57:45.885Z,24.60
2019-05-18T11:00:14.623Z,24.70
2019-05-18T11:02:42.647Z,25.00
2019-05-18T11:05:11.250Z,25.80
2019-05-18T11:07:39.145Z,26.10
2019-05-18T11:10:08.126Z,25.80
2019-05-18T11:12:36.108Z,25.40
2019-05-18T11:15:04.607Z,24.10
2019-05-18T11:17:32.793Z,25.50
2019-05-18T11:20:00.913Z,25.00
2019-05-18T11:22:28.930Z,25.10
2019-05-18T11:24:56.948Z,25.10
2019-05-18T11:27:24.956Z,25.20
2019-05-18T11:29:53.508Z,25.90
2019-05-18T11:32:21.492Z,27.60
2019-05-18T11:34:49.479Z,26.70
2019-05-18T11:37:17.538Z,24.60
2019-05-18T11:39:45.529Z,24.60
2019-05-18T11:42:16.091Z,25.40
2019-05-18T11:44:44.280Z,26.50
2019-05-18T11:47:12.316Z,26.40
2019-05-18T11:49:40.385Z,26.30
2019-05-18T11:52:08.975Z,26.40
2019-05-18T11:54:37.661Z,25.80
2019-05-18T11:57:05.930Z,26.00
2019-05-18T11:59:34.793Z,25.60
2019-05-18T12:02:04.562Z,26.90
2019-05-18T12:04:32.717Z,26.80
2019-05-18T12:07:18.080Z,24.90
2019-05-18T12:09:46.075Z,25.90
2019-05-18T12:12:14.121Z,24.90
2019-05-18T12:14:42.147Z,25.30
2019-05-18T12:17:10.150Z,26.60
2019-05-18T12:19:38.105Z,24.50
2019-05-18T12:22:06.376Z,26.90
2019-05-18T12:24:34.482Z,28.30
2019-05-18T12:27:02.531Z,27.90
2019-05-18T12:29:30.553Z,28.30
2019-05-18T12:31:58.820Z,25.70
2019-05-18T12:34:27.029Z,24.80
2019-05-18T12:36:55.155Z,25.60
2019-05-18T12:39:23.244Z,25.40
2019-05-18T12:41:51.252Z,26.30
2019-05-18T12:44:19.241Z,27.60
2019-05-18T12:46:47.548Z,29.00
2019-05-18T12:49:15.790Z,29.30
2019-05-18T12:51:43.795Z,29.20
2019-05-18T12:54:11.752Z,27.80
2019-05-18T12:56:40.140Z,27.70
2019-05-18T12:59:08.326Z,28.30
2019-05-18T13:01:36.374Z,26.70
2019-05-18T13:04:04.371Z,26.80
2019-05-18T13:06:32.383Z,27.40
2019-05-18T13:09:00.432Z,27.20
2019-05-18T13:11:28.387Z,26.00
2019-05-18T13:13:56.374Z,27.60
2019-05-18T13:16:24.356Z,28.10
2019-05-18T13:18:52.265Z,28.40
2019-05-18T13:21:20.212Z,26.30
2019-05-18T13:23:48.188Z,26.10
2019-05-18T13:26:16.148Z,25.90
2019-05-18T13:28:44.525Z,26.40
2019-05-18T13:31:12.526Z,27.80
2019-05-18T13:33:40.598Z,28.20
2019-05-18T13:36:08.727Z,29.80
2019-05-18T13:38:36.845Z,27.40
2019-05-18T13:41:04.870Z,29.10
2019-05-18T13:43:32.910Z,28.70
2019-05-18T13:46:00.913Z,30.30
2019-05-18T13:48:28.919Z,28.20
2019-05-18T13:50:57.023Z,27.10
2019-05-18T13:53:25.185Z,26.90
2019-05-18T13:55:53.266Z,28.30
2019-05-18T13:58:21.333Z,30.90
2019-05-18T14:00:49.566Z,29.30
2019-05-18T14:03:18.730Z,29.50
2019-05-18T14:05:46.837Z,29.10
2019-05-18T14:08:15.958Z,28.90
2019-05-18T14:10:44.234Z,27.70
2019-05-18T14:13:12.504Z,27.60
2019-05-18T14:15:40.551Z,28.40
2019-05-18T14:18:08.635Z,29.20
2019-05-18T14:20:36.883Z,29.80
2019-05-18T14:23:04.975Z,28.20
2019-05-18T14:25:32.925Z,27.30
2019-05-18T14:28:01.002Z,26.90
2019-05-18T14:30:29.134Z,26.70
2019-05-18T14:32:57.970Z,27.40
2019-05-18T14:35:26.455Z,29.00
2019-05-18T14:37:54.752Z,31.10
2019-05-18T14:40:23.929Z,29.70
2019-05-18T14:42:52.067Z,31.50
2019-05-18T14:45:20.369Z,28.90
2019-05-18T14:47:48.535Z,29.20
2019-05-18T14:50:19.098Z,28.50
2019-05-18T14:52:47.128Z,30.30
2019-05-18T14:55:16.845Z,31.70
2019-05-18T14:57:45.104Z,27.30
2019-05-18T15:00:14.005Z,26.00
2019-05-18T15:02:42.388Z,28.70
2019-05-18T15:05:12.803Z,28.10
2019-05-18T15:07:40.844Z,25.90
2019-05-18T15:10:09.595Z,26.30
2019-05-18T15:12:38.097Z,27.30
2019-05-18T15:15:10.682Z,25.80
2019-05-18T15:17:39.836Z,27.10
2019-05-18T15:20:08.988Z,26.20
2019-05-18T15:22:37.031Z,27.40
2019-05-18T15:25:05.971Z,27.40
2019-05-18T15:27:35.035Z,27.10
2019-05-18T15:30:04.171Z,27.00
2019-05-18T15:32:33.194Z,26.20
2019-05-18T15:35:01.838Z,25.70
2019-05-18T15:37:30.461Z,26.50
2019-05-18T15:39:59.625Z,26.10
2019-05-18T15:42:27.717Z,25.80
2019-05-18T15:44:55.873Z,26.20
2019-05-18T15:47:24.188Z,25.90
2019-05-18T15:49:52.381Z,26.30
2019-05-18T15:52:20.501Z,25.90
2019-05-18T15:54:48.588Z,25.80
2019-05-18T15:57:16.519Z,26.20
2019-05-18T15:59:45.101Z,26.20
2019-05-18T16:02:13.646Z,26.00
2019-05-18T16:04:42.397Z,26.20
2019-05-18T16:07:10.621Z,26.30
2019-05-18T16:09:40.307Z,26.50
2019-05-18T16:12:08.545Z,26.50
2019-05-18T16:14:36.715Z,26.90
2019-05-18T16:17:05.983Z,27.00
2019-05-18T16:19:34.096Z,27.10
2019-05-18T16:22:03.077Z,26.90
2019-05-18T16:24:31.381Z,27.10
2019-05-18T16:27:01.635Z,27.50
2019-05-18T16:29:30.344Z,27.50
2019-05-18T16:31:58.626Z,27.50
2019-05-18T16:34:26.820Z,26.90
2019-05-18T16:36:55.563Z,27.10
2019-05-18T16:39:23.710Z,27.30
2019-05-18T16:41:52.759Z,27.20
2019-05-18T16:44:21.717Z,25.10
2019-05-18T16:46:49.984Z,26.00
2019-05-18T16:49:18.551Z,25.50
2019-05-18T16:51:46.995Z,24.70
2019-05-18T16:54:15.458Z,26.30
2019-05-18T16:56:44.459Z,26.90
2019-05-18T16:59:12.513Z,26.00
2019-05-18T17:01:40.753Z,25.40
2019-05-18T17:04:09.673Z,25.40
2019-05-18T17:06:39.902Z,25.70
2019-05-18T17:09:09.401Z,24.90
2019-05-18T17:11:37.950Z,25.40
2019-05-18T17:14:06.394Z,25.80
2019-05-18T17:16:35.338Z,25.80
2019-05-18T17:19:04.133Z,25.70
2019-05-18T17:21:33.403Z,26.20
2019-05-18T17:24:01.821Z,26.60
2019-05-18T17:26:30.061Z,26.10
2019-05-18T17:28:58.946Z,26.30
2019-05-18T17:31:29.820Z,26.40
2019-05-18T17:34:00.585Z,24.90
2019-05-18T17:36:28.619Z,25.60
2019-05-18T17:38:56.932Z,25.20
2019-05-18T17:41:25.516Z,25.50
2019-05-18T17:43:53.522Z,25.80
2019-05-18T17:46:21.764Z,25.20
2019-05-18T17:48:50.185Z,25.70
2019-05-18T17:51:21.308Z,25.80
2019-05-18T17:53:49.468Z,26.10
2019-05-18T17:56:18.517Z,26.00
2019-05-18T17:58:46.694Z,26.00
2019-05-18T18:01:15.728Z,25.30
2019-05-18T18:03:43.796Z,25.40
2019-05-18T18:06:12.552Z,25.20
2019-05-18T18:17:48.433Z,25.10
2019-05-18T18:20:18.064Z,25.00
2019-05-18T18:28:42.760Z,24.70
2019-05-18T18:31:11.049Z,24.70
2019-05-18T18:33:39.199Z,24.20
2019-05-18T18:36:07.235Z,22.80
2019-05-18T18:38:35.399Z,22.00
2019-05-18T18:41:03.398Z,22.00
2019-05-18T18:43:31.555Z,21.40
2019-05-18T18:45:59.574Z,21.40
2019-05-18T18:48:27.801Z,21.50
2019-05-18T18:50:56.137Z,20.90
2019-05-18T18:53:26.242Z,21.00
2019-05-18T18:55:54.316Z,20.20
2019-05-18T18:58:22.520Z,20.20
2019-05-18T19:00:50.493Z,20.00
2019-05-18T19:03:19.981Z,20.10
2019-05-18T19:05:48.040Z,20.00
2019-05-18T19:08:16.063Z,19.40
2019-05-18T19:10:44.119Z,19.50
2019-05-18T19:13:12.222Z,19.20
2019-05-18T19:15:40.239Z,19.20
2019-05-18T19:18:09.352Z,19.40
2019-05-18T19:20:37.317Z,19.20
2019-05-18T19:23:05.368Z,19.30
2019-05-18T19:25:33.346Z,19.00
2019-05-18T19:28:01.454Z,19.20
2019-05-18T19:30:29.570Z,18.80
2019-05-18T19:32:57.616Z,19.00
2019-05-18T19:35:25.611Z,18.90
2019-05-18T19:37:53.929Z,18.70
2019-05-18T19:40:21.903Z,18.40
2019-05-18T19:42:50.407Z,18.60
2019-05-18T19:45:20.113Z,18.20
2019-05-18T19:47:49.726Z,17.90
2019-05-18T19:50:17.827Z,17.80
2019-05-18T19:52:46.449Z,17.50
2019-05-18T19:55:14.557Z,17.50
2019-05-18T19:57:42.524Z,16.90
2019-05-18T20:00:11.253Z,17.50
2019-05-18T20:02:39.410Z,17.50
2019-05-18T20:05:09.183Z,17.30
2019-05-18T20:07:37.778Z,17.30
2019-05-18T20:10:09.528Z,17.00
2019-05-18T20:12:38.875Z,17.00
2019-05-18T20:15:09.580Z,17.30
2019-05-18T20:17:38.023Z,17.50
2019-05-18T20:20:06.586Z,17.70
2019-05-18T20:22:34.566Z,17.80
2019-05-18T20:25:02.960Z,17.90
2019-05-18T20:27:30.930Z,17.60
2019-05-18T20:29:59.042Z,18.00
2019-05-18T20:32:27.112Z,17.90
2019-05-18T20:34:55.285Z,17.70
2019-05-18T20:37:23.343Z,18.00
2019-05-18T20:39:51.818Z,17.80
2019-05-18T20:42:19.843Z,17.60
2019-05-18T20:44:47.925Z,17.90
2019-05-18T20:47:15.983Z,17.70
2019-05-18T20:49:44.210Z,17.50
2019-05-18T20:52:15.460Z,17.30
2019-05-18T20:54:43.504Z,17.40
2019-05-18T20:57:11.480Z,17.40
2019-05-18T20:59:39.668Z,17.50
2019-05-18T21:02:12.654Z,17.50
2019-05-18T21:04:40.801Z,17.10
2019-05-18T21:07:08.890Z,17.30
2019-05-18T21:09:37.131Z,17.10
2019-05-18T21:12:05.211Z,17.30
2019-05-18T21:14:33.263Z,17.20
2019-05-18T21:17:01.427Z,17.30
2019-05-18T21:19:29.841Z,17.40
2019-05-18T21:21:57.854Z,17.30
2019-05-18T21:24:25.945Z,16.90
2019-05-18T21:26:53.977Z,17.20
2019-05-18T21:29:22.031Z,16.80
2019-05-18T21:31:50.331Z,17.10
2019-05-18T21:34:18.978Z,17.00
2019-05-18T21:36:47.429Z,17.20
2019-05-18T21:39:15.514Z,17.20
2019-05-18T21:41:43.598Z,17.50
2019-05-18T21:44:16.871Z,17.20
2019-05-18T21:46:44.935Z,17.20
2019-05-18T21:49:13.022Z,17.20
2019-05-18T21:51:42.757Z,17.30
2019-05-18T21:54:10.989Z,17.20
2019-05-18T21:56:39.448Z,17.20
2019-05-18T21:59:11.644Z,17.30
2019-05-18T22:01:39.593Z,17.20
2019-05-18T22:04:08.374Z,17.00
2019-05-18T22:06:37.346Z,17.00
2019-05-18T22:09:06.718Z,16.80
2019-05-18T22:11:35.095Z,16.70
2019-05-18T22:14:05.084Z,16.30
2019-05-18T22:16:33.101Z,16.50
2019-05-18T22:19:03.249Z,16.90
2019-05-18T22:21:32.047Z,16.40
2019-05-18T22:24:00.460Z,16.50
2019-05-18T22:26:29.016Z,16.20
2019-05-18T22:28:58.094Z,16.70
2019-05-18T22:31:35.262Z,16.90
2019-05-18T22:34:04.243Z,17.50
2019-05-18T22:36:34.428Z,16.90
2019-05-18T22:39:05.656Z,16.80
2019-05-18T22:41:34.353Z,16.90
2019-05-18T22:44:02.666Z,17.50
2019-05-18T22:46:30.798Z,17.70
2019-05-18T22:48:58.908Z,17.60
2019-05-18T22:51:26.969Z,17.80
2019-05-18T22:53:55.920Z,17.50
2019-05-18T22:56:24.238Z,17.40
2019-05-18T22:58:52.641Z,17.40
2019-05-18T23:01:22.803Z,17.60
2019-05-18T23:03:51.911Z,17.50
2019-05-18T23:06:20.832Z,17.50
2019-05-18T23:08:48.843Z,17.80
2019-05-18T23:11:17.032Z,17.80
2019-05-18T23:13:45.638Z,17.40
2019-05-18T23:16:13.760Z,16.90
2019-05-18T23:18:56.479Z,17.10
2019-05-18T23:21:15.541Z,17.10
2019-05-18T23:23:43.798Z,16.60
2019-05-18T23:26:13.916Z,17.10
2019-05-18T23:28:44.847Z,16.90
2019-05-18T23:31:14.080Z,16.90
2019-05-18T23:33:42.285Z,16.60
2019-05-18T23:36:11.368Z,16.10
2019-05-18T23:38:39.446Z,16.00
2019-05-18T23:41:07.390Z,16.30
2019-05-18T23:43:35.358Z,15.80
2019-05-18T23:46:03.385Z,16.10
2019-05-18T23:48:31.377Z,16.40
2019-05-18T23:50:59.555Z,16.70
2019-05-18T23:53:27.456Z,17.00
2019-05-18T23:55:55.394Z,17.10
2019-05-18T23:58:23.310Z,17.00
